Time;durP1;ratioP1;P1;durP2;ratioP2;P2;SDS_P1;SDS_P2;PMS_P1;PMS_P2;Temp;Humidity;BMP_temperature;BMP_pressure;BME280_temperature;BME280_humidity;BME280_pressure;Samples;Min_cycle;Max_cycle;Signal;HPM_P1;HPM_P2
2023/10/20 00:01:00;;;;;;;37.08;26.20;;;;;;;;;;4992979;28;20054;-78
2023/10/20 00:03:28;;;;;;;43.42;28.95;;;;;;;;;;4992410;28;20133;-78
2023/10/20 00:05:56;;;;;;;38.65;26.02;;;;;;;;;;4988762;28;20051;-78
2023/10/20 00:08:23;;;;;;;48.00;30.10;;;;;;;;;;4997644;28;20042;-79
2023/10/20 00:10:52;;;;;;;39.25;27.05;;;;;;;;;;4996004;28;20054;-78
2023/10/20 00:13:19;;;;;;;84.90;35.85;;;;;;;;;;4997853;28;20057;-78
2023/10/20 00:15:46;;;;;;;66.25;34.00;;;;;;;;;;4995843;28;20057;-78
2023/10/20 00:18:14;;;;;;;41.33;28.92;;;;;;;;;;4996802;28;20046;-79
2023/10/20 00:20:41;;;;;;;44.95;29.83;;;;;;;;;;4995476;28;20058;-78
2023/10/20 00:23:08;;;;;;;63.58;31.50;;;;;;;;;;4996806;28;20055;-78
2023/10/20 00:25:36;;;;;;;39.72;26.92;;;;;;;;;;4998774;28;20057;-79
2023/10/20 00:28:04;;;;;;;41.33;27.80;;;;;;;;;;4998709;28;20527;-79
2023/10/20 00:30:31;;;;;;;42.90;27.77;;;;;;;;;;4999043;28;20050;-79
2023/10/20 00:32:59;;;;;;;42.05;29.40;;;;;;;;;;4998989;28;20050;-79
2023/10/20 00:35:26;;;;;;;43.90;29.83;;;;;;;;;;4997812;28;20105;-79
2023/10/20 00:37:54;;;;;;;40.08;28.00;;;;;;;;;;5006211;28;20129;-79
2023/10/20 00:40:21;;;;;;;46.78;29.70;;;;;;;;;;4998663;28;20051;-79
2023/10/20 00:42:49;;;;;;;39.58;26.38;;;;;;;;;;4998173;28;20050;-79
2023/10/20 00:45:16;;;;;;;35.92;25.55;;;;;;;;;;4998686;28;20128;-79
2023/10/20 00:47:47;;;;;;;41.85;26.23;;;;;;;;;;4996770;28;20089;-78
2023/10/20 00:50:15;;;;;;;39.80;26.95;;;;;;;;;;4998018;28;20085;-79
2023/10/20 00:52:47;;;;;;;41.67;26.90;;;;;;;;;;4996283;28;20054;-79
2023/10/20 00:55:14;;;;;;;37.58;24.98;;;;;;;;;;4996924;28;20049;-79
2023/10/20 00:57:45;;;;;;;36.80;25.30;;;;;;;;;;4988177;28;20101;-79
2023/10/20 01:00:13;;;;;;;34.83;24.75;;;;;;;;;;4996606;28;20100;-78
2023/10/20 01:02:41;;;;;;;41.05;27.35;;;;;;;;;;4999283;28;20050;-79
2023/10/20 01:05:09;;;;;;;35.05;24.50;;;;;;;;;;5000938;28;20050;-79
2023/10/20 01:07:36;;;;;;;36.45;24.35;;;;;;;;;;4996523;28;20050;-79
2023/10/20 01:10:07;;;;;;;36.63;24.50;;;;;;;;;;4998214;28;20138;-78
2023/10/20 01:12:35;;;;;;;34.60;24.00;;;;;;;;;;5010140;28;20101;-78
2023/10/20 01:15:05;;;;;;;48.15;27.42;;;;;;;;;;4999315;28;20054;-79
2023/10/20 01:17:32;;;;;;;38.78;24.73;;;;;;;;;;4998791;28;20068;-79
2023/10/20 01:20:04;;;;;;;41.47;26.08;;;;;;;;;;4997066;28;20050;-79
2023/10/20 01:22:31;;;;;;;37.10;24.45;;;;;;;;;;4996773;28;20210;-78
2023/10/20 01:24:59;;;;;;;66.97;28.80;;;;;;;;;;4998485;28;20046;-79
2023/10/20 01:27:26;;;;;;;38.22;26.27;;;;;;;;;;4996217;28;20120;-78
2023/10/20 01:29:53;;;;;;;38.00;25.20;;;;;;;;;;4997287;28;20109;-78
2023/10/20 01:32:21;;;;;;;39.88;26.45;;;;;;;;;;4997397;28;20112;-78
2023/10/20 01:34:48;;;;;;;40.25;25.75;;;;;;;;;;4997477;28;20085;-78
2023/10/20 01:37:15;;;;;;;37.00;26.10;;;;;;;;;;4995326;28;20050;-78
2023/10/20 01:39:43;;;;;;;37.17;25.75;;;;;;;;;;4993132;28;20050;-78
2023/10/20 01:42:10;;;;;;;56.85;28.52;;;;;;;;;;4991357;28;20054;-78
2023/10/20 01:44:37;;;;;;;68.75;30.50;;;;;;;;;;4987332;28;20057;-79
2023/10/20 01:47:05;;;;;;;38.08;25.70;;;;;;;;;;5002425;28;20394;-79
2023/10/20 01:49:32;;;;;;;44.03;27.02;;;;;;;;;;4996122;28;20046;-77
2023/10/20 01:51:59;;;;;;;37.20;26.15;;;;;;;;;;4993428;28;20096;-77
2023/10/20 01:54:26;;;;;;;38.97;26.67;;;;;;;;;;4994548;28;20468;-77
2023/10/20 01:56:54;;;;;;;40.33;25.50;;;;;;;;;;4994400;28;20046;-77
2023/10/20 01:59:21;;;;;;;48.42;27.20;;;;;;;;;;4993268;28;20046;-78
2023/10/20 02:01:48;;;;;;;41.45;25.80;;;;;;;;;;4994221;28;20134;-78
2023/10/20 02:04:15;;;;;;;36.08;25.42;;;;;;;;;;4995436;28;20093;-78
2023/10/20 02:06:42;;;;;;;39.58;25.42;;;;;;;;;;4995157;28;20077;-78
2023/10/20 02:09:10;;;;;;;39.40;25.13;;;;;;;;;;5001267;28;20046;-78
2023/10/20 02:11:37;;;;;;;43.08;25.95;;;;;;;;;;5018873;22;20109;-84
2023/10/20 02:14:04;;;;;;;43.08;27.63;;;;;;;;;;4992773;28;20042;-84
2023/10/20 02:16:32;;;;;;;37.58;25.02;;;;;;;;;;4992993;28;20057;-84
2023/10/20 02:18:59;;;;;;;36.90;24.25;;;;;;;;;;4994518;28;20051;-83
2023/10/20 02:21:26;;;;;;;42.55;25.58;;;;;;;;;;4993183;28;20073;-84
2023/10/20 02:23:54;;;;;;;33.35;23.98;;;;;;;;;;4995508;28;20105;-83
2023/10/20 02:26:21;;;;;;;36.78;24.73;;;;;;;;;;4999040;28;20050;-83
2023/10/20 02:28:48;;;;;;;53.05;28.73;;;;;;;;;;5006690;28;20050;-82
2023/10/20 02:31:17;;;;;;;36.65;24.25;;;;;;;;;;5002754;28;20116;-84
2023/10/20 02:33:45;;;;;;;63.63;29.50;;;;;;;;;;4997618;28;20132;-84
2023/10/20 02:36:16;;;;;;;41.47;25.33;;;;;;;;;;4997924;28;20069;-84
2023/10/20 02:38:44;;;;;;;37.67;26.15;;;;;;;;;;4988065;28;20046;-84
2023/10/20 02:41:11;;;;;;;36.20;25.35;;;;;;;;;;4995717;28;20050;-84
2023/10/20 02:43:38;;;;;;;32.60;24.05;;;;;;;;;;4996881;28;20054;-84
2023/10/20 02:46:06;;;;;;;35.78;24.58;;;;;;;;;;4997154;28;20057;-84
2023/10/20 02:48:34;;;;;;;42.13;24.38;;;;;;;;;;4995454;28;20516;-84
2023/10/20 02:51:11;;;;;;;33.88;24.33;;;;;;;;;;4995677;28;20054;-84
2023/10/20 02:53:41;;;;;;;39.17;24.83;;;;;;;;;;4995240;28;20046;-84
2023/10/20 02:56:13;;;;;;;34.25;22.70;;;;;;;;;;4995132;28;20085;-84
2023/10/20 02:58:43;;;;;;;34.35;24.10;;;;;;;;;;4994770;28;20107;-83
2023/10/20 03:01:11;;;;;;;36.78;24.25;;;;;;;;;;4988370;28;20050;-83
2023/10/20 03:03:38;;;;;;;40.55;24.48;;;;;;;;;;4997462;28;20069;-84
2023/10/20 03:06:09;;;;;;;36.78;24.58;;;;;;;;;;4993973;28;20061;-84
2023/10/20 03:08:37;;;;;;;35.85;24.77;;;;;;;;;;4993317;28;20089;-84
2023/10/20 03:11:05;;;;;;;37.10;25.00;;;;;;;;;;4995271;28;20401;-84
2023/10/20 03:13:33;;;;;;;40.35;25.02;;;;;;;;;;4995994;28;20046;-84
2023/10/20 03:16:00;;;;;;;34.65;23.85;;;;;;;;;;4995299;28;20050;-84
2023/10/20 03:18:28;;;;;;;36.40;23.40;;;;;;;;;;4995057;28;20555;-84
2023/10/20 03:21:00;;;;;;;41.28;26.30;;;;;;;;;;4994790;28;20083;-84
2023/10/20 03:23:28;;;;;;;37.08;24.48;;;;;;;;;;4996928;28;20054;-83
2023/10/20 03:25:55;;;;;;;38.25;24.08;;;;;;;;;;4995486;28;20528;-83
2023/10/20 03:28:23;;;;;;;38.55;23.25;;;;;;;;;;4995022;28;20055;-83
2023/10/20 03:30:50;;;;;;;64.88;28.85;;;;;;;;;;4994953;28;20468;-83
2023/10/20 03:33:18;;;;;;;38.03;24.83;;;;;;;;;;4996023;28;20137;-83
2023/10/20 03:35:47;;;;;;;30.50;22.42;;;;;;;;;;4996154;28;20050;-83
2023/10/20 03:38:15;;;;;;;36.97;24.35;;;;;;;;;;4988887;28;20101;-83
2023/10/20 03:40:46;;;;;;;39.20;23.13;;;;;;;;;;4993363;28;20078;-83
2023/10/20 03:43:13;;;;;;;48.13;25.73;;;;;;;;;;4993591;28;20057;-83
2023/10/20 03:45:51;;;;;;;34.05;22.90;;;;;;;;;;4998048;28;20062;-83
2023/10/20 03:48:19;;;;;;;38.15;23.23;;;;;;;;;;4998846;28;20087;-83
2023/10/20 03:50:48;;;;;;;33.47;22.52;;;;;;;;;;5000152;28;20046;-83
2023/10/20 03:53:18;;;;;;;30.08;21.85;;;;;;;;;;4992468;28;20085;-83
2023/10/20 03:56:01;;;;;;;36.88;22.92;;;;;;;;;;4997884;28;20058;-83
2023/10/20 03:58:29;;;;;;;34.30;22.42;;;;;;;;;;4998722;28;20133;-83
2023/10/20 04:00:57;;;;;;;39.90;22.92;;;;;;;;;;4999229;28;20054;-83
2023/10/20 04:03:25;;;;;;;34.92;22.73;;;;;;;;;;4997443;28;20185;-82
2023/10/20 04:05:53;;;;;;;40.55;25.38;;;;;;;;;;4997759;28;20056;-83
2023/10/20 04:08:20;;;;;;;39.95;23.85;;;;;;;;;;4997500;28;20046;-84
2023/10/20 04:10:48;;;;;;;42.92;24.20;;;;;;;;;;4996981;28;20066;-84
2023/10/20 04:13:15;;;;;;;32.65;22.50;;;;;;;;;;4998114;28;20042;-83
2023/10/20 04:15:42;;;;;;;41.22;25.02;;;;;;;;;;4996643;28;20104;-83
2023/10/20 04:18:10;;;;;;;33.47;23.10;;;;;;;;;;4997011;28;20465;-84
2023/10/20 04:20:41;;;;;;;43.80;25.75;;;;;;;;;;4996619;28;20497;-83
2023/10/20 04:23:09;;;;;;;38.85;23.92;;;;;;;;;;4998186;28;20055;-83
2023/10/20 04:25:49;;;;;;;35.13;22.85;;;;;;;;;;4998465;28;20133;-83
2023/10/20 04:28:18;;;;;;;32.85;22.60;;;;;;;;;;4997315;28;20054;-83
2023/10/20 04:52:58;;;;;;;42.55;24.88;;;;;;;;;;4998307;28;20515;-83
2023/10/20 04:58:11;;;;;;;41.35;24.70;;;;;;;;;;4998961;28;20054;-83
2023/10/20 05:00:41;;;;;;;37.75;24.33;;;;;;;;;;4999190;28;20112;-83
2023/10/20 05:03:16;;;;;;;39.33;24.90;;;;;;;;;;4997993;28;20051;-83
2023/10/20 05:05:53;;;;;;;39.75;24.83;;;;;;;;;;4998389;28;20078;-83
2023/10/20 05:08:23;;;;;;;37.90;24.23;;;;;;;;;;4998210;28;20054;-83
2023/10/20 05:10:51;;;;;;;45.75;26.15;;;;;;;;;;5017304;28;20054;-82
2023/10/20 05:13:19;;;;;;;39.60;25.20;;;;;;;;;;5007321;28;20054;-83
2023/10/20 05:15:47;;;;;;;38.17;24.48;;;;;;;;;;5000375;28;20050;-83
2023/10/20 05:18:15;;;;;;;40.70;25.25;;;;;;;;;;4999943;28;20050;-83
2023/10/20 05:20:42;;;;;;;37.65;24.83;;;;;;;;;;4999342;28;20078;-83
2023/10/20 05:23:19;;;;;;;43.78;27.80;;;;;;;;;;5000096;28;20161;-83
2023/10/20 05:25:49;;;;;;;48.45;29.15;;;;;;;;;;4998866;28;20065;-83
2023/10/20 05:28:17;;;;;;;46.25;30.80;;;;;;;;;;4999409;28;20432;-83
2023/10/20 05:30:45;;;;;;;59.90;31.02;;;;;;;;;;4998640;28;20042;-83
2023/10/20 05:33:15;;;;;;;62.90;30.17;;;;;;;;;;4996486;28;20047;-83
2023/10/20 05:35:43;;;;;;;78.85;32.97;;;;;;;;;;4998373;28;20046;-83
2023/10/20 05:38:11;;;;;;;57.65;28.27;;;;;;;;;;4997594;28;20424;-83
2023/10/20 05:40:39;;;;;;;66.15;29.83;;;;;;;;;;4996621;28;20711;-83
2023/10/20 05:43:06;;;;;;;49.38;26.92;;;;;;;;;;4992087;28;20055;-83
2023/10/20 05:45:37;;;;;;;52.90;30.55;;;;;;;;;;4997776;28;20053;-83
2023/10/20 05:48:05;;;;;;;49.55;27.65;;;;;;;;;;4997781;28;20090;-83
2023/10/20 05:50:36;;;;;;;59.13;26.85;;;;;;;;;;4997331;28;20050;-83
2023/10/20 05:53:04;;;;;;;80.22;30.33;;;;;;;;;;4997960;28;20520;-84
2023/10/20 05:55:35;;;;;;;56.92;28.25;;;;;;;;;;4998484;28;20086;-83
2023/10/20 05:58:02;;;;;;;47.95;27.10;;;;;;;;;;4998525;28;20453;-83
2023/10/20 06:00:29;;;;;;;63.30;28.65;;;;;;;;;;4997846;28;20464;-83
2023/10/20 06:02:58;;;;;;;47.83;27.23;;;;;;;;;;4997180;28;20054;-82
2023/10/20 06:05:27;;;;;;;46.17;27.00;;;;;;;;;;4997905;28;20047;-83
2023/10/20 06:07:55;;;;;;;47.80;29.17;;;;;;;;;;4997746;28;20108;-83
2023/10/20 06:10:22;;;;;;;53.03;32.95;;;;;;;;;;4998991;28;20046;-83
2023/10/20 06:12:53;;;;;;;58.95;37.78;;;;;;;;;;4998967;28;20042;-83
2023/10/20 06:15:21;;;;;;;60.15;35.00;;;;;;;;;;4999054;28;20042;-83
2023/10/20 06:17:49;;;;;;;72.88;35.83;;;;;;;;;;4998540;28;20051;-84
2023/10/20 06:20:17;;;;;;;70.20;31.05;;;;;;;;;;4997999;28;20113;-84
2023/10/20 06:22:44;;;;;;;58.83;29.85;;;;;;;;;;4999093;28;20125;-83
2023/10/20 06:25:15;;;;;;;55.58;30.70;;;;;;;;;;4994385;28;20053;-83
2023/10/20 06:27:42;;;;;;;55.75;29.92;;;;;;;;;;4985064;28;20050;-83
2023/10/20 06:30:14;;;;;;;55.47;30.77;;;;;;;;;;4999959;28;20125;-83
2023/10/20 06:32:43;;;;;;;48.63;28.67;;;;;;;;;;4999123;28;20074;-83
2023/10/20 06:35:12;;;;;;;51.50;31.13;;;;;;;;;;4992510;28;20076;-84
2023/10/20 06:38:01;;;;;;;67.80;38.17;;;;;;;;;;4995735;28;20386;-83
2023/10/20 06:40:28;;;;;;;176.68;91.75;;;;;;;;;;4994171;28;20050;-82
2023/10/20 06:42:55;;;;;;;160.88;73.85;;;;;;;;;;4993208;28;20101;-83
2023/10/20 06:45:22;;;;;;;123.53;61.75;;;;;;;;;;4993072;28;20120;-83
2023/10/20 06:47:50;;;;;;;88.68;45.05;;;;;;;;;;4993275;28;20138;-83
2023/10/20 06:50:17;;;;;;;69.68;39.58;;;;;;;;;;4992869;28;20080;-83
2023/10/20 06:52:44;;;;;;;65.28;37.05;;;;;;;;;;4994310;28;20046;-82
2023/10/20 06:55:13;;;;;;;85.22;40.97;;;;;;;;;;4993162;28;20050;-83
2023/10/20 06:57:43;;;;;;;128.77;54.05;;;;;;;;;;4993315;28;20108;-83
2023/10/20 07:00:17;;;;;;;99.28;49.58;;;;;;;;;;4992484;28;20042;-83
2023/10/20 07:02:44;;;;;;;96.30;49.17;;;;;;;;;;4992737;28;20056;-83
2023/10/20 07:05:12;;;;;;;106.63;49.53;;;;;;;;;;4993243;28;20073;-83
2023/10/20 07:07:40;;;;;;;95.25;46.17;;;;;;;;;;4994897;28;20421;-82
2023/10/20 07:10:10;;;;;;;76.90;41.92;;;;;;;;;;5005775;28;20108;-82
2023/10/20 07:12:38;;;;;;;114.90;48.33;;;;;;;;;;5006066;28;20066;-82
2023/10/20 07:15:05;;;;;;;71.97;39.60;;;;;;;;;;5004420;28;20089;-84
2023/10/20 07:17:33;;;;;;;88.95;41.40;;;;;;;;;;4992873;28;20087;-84
2023/10/20 07:20:04;;;;;;;57.58;34.03;;;;;;;;;;5000155;28;20050;-84
2023/10/20 07:22:32;;;;;;;66.35;36.30;;;;;;;;;;4999456;28;20051;-84
2023/10/20 07:24:59;;;;;;;56.90;34.17;;;;;;;;;;5000402;28;20050;-84
2023/10/20 07:27:26;;;;;;;69.07;36.47;;;;;;;;;;4999891;28;20049;-84
2023/10/20 07:29:54;;;;;;;68.50;35.45;;;;;;;;;;4999595;28;20509;-84
2023/10/20 07:32:21;;;;;;;55.85;33.60;;;;;;;;;;5002367;28;20050;-83
2023/10/20 07:34:48;;;;;;;62.65;33.70;;;;;;;;;;5008468;28;20071;-84
2023/10/20 07:37:18;;;;;;;52.30;31.15;;;;;;;;;;5005371;28;20046;-84
2023/10/20 07:39:46;;;;;;;53.10;31.15;;;;;;;;;;5000292;28;20050;-83
2023/10/20 07:42:16;;;;;;;43.40;30.25;;;;;;;;;;4999780;28;20050;-83
2023/10/20 07:44:43;;;;;;;50.92;29.65;;;;;;;;;;4999077;28;20054;-83
2023/10/20 07:47:11;;;;;;;51.97;31.92;;;;;;;;;;4999621;28;20105;-84
2023/10/20 07:49:39;;;;;;;53.05;31.92;;;;;;;;;;4998961;28;20073;-83
2023/10/20 07:52:07;;;;;;;47.05;30.80;;;;;;;;;;4999230;28;20563;-83
2023/10/20 07:54:35;;;;;;;50.35;30.88;;;;;;;;;;4997008;28;20048;-84
2023/10/20 07:57:03;;;;;;;42.88;28.80;;;;;;;;;;4997459;28;20042;-84
2023/10/20 07:59:30;;;;;;;43.25;27.88;;;;;;;;;;4997574;28;20468;-83
2023/10/20 08:01:58;;;;;;;37.38;25.75;;;;;;;;;;4997844;28;20054;-84
2023/10/20 08:04:26;;;;;;;34.13;25.40;;;;;;;;;;4998738;28;20054;-82
2023/10/20 08:06:55;;;;;;;40.88;25.73;;;;;;;;;;4990869;28;20055;-84
2023/10/20 08:09:22;;;;;;;34.75;25.33;;;;;;;;;;4998317;28;20058;-84
2023/10/20 08:11:49;;;;;;;30.70;23.63;;;;;;;;;;5053772;23;20045;-77
2023/10/20 08:14:17;;;;;;;36.40;24.63;;;;;;;;;;5036940;28;20496;-77
2023/10/20 08:16:44;;;;;;;36.50;25.13;;;;;;;;;;5036741;28;20050;-77
2023/10/20 08:19:12;;;;;;;35.25;24.65;;;;;;;;;;5036310;28;20119;-77
2023/10/20 08:21:42;;;;;;;38.13;26.40;;;;;;;;;;5037120;28;20478;-77
2023/10/20 08:24:10;;;;;;;41.78;27.08;;;;;;;;;;5037344;28;20050;-78
2023/10/20 08:26:39;;;;;;;39.80;25.52;;;;;;;;;;5037293;28;20053;-78
2023/10/20 08:29:11;;;;;;;39.92;28.10;;;;;;;;;;5036288;28;20561;-77
2023/10/20 08:31:39;;;;;;;42.33;27.48;;;;;;;;;;5035730;28;20046;-78
2023/10/20 08:34:07;;;;;;;36.92;26.83;;;;;;;;;;5036093;28;20054;-77
2023/10/20 08:36:34;;;;;;;39.15;27.38;;;;;;;;;;5035677;28;20626;-78
2023/10/20 08:39:06;;;;;;;44.28;28.65;;;;;;;;;;5035506;28;20103;-78
2023/10/20 08:41:34;;;;;;;46.55;30.90;;;;;;;;;;5034954;28;20389;-78
2023/10/20 08:44:01;;;;;;;48.85;29.85;;;;;;;;;;5036476;28;20056;-78
2023/10/20 08:46:28;;;;;;;44.05;29.77;;;;;;;;;;5036553;28;20132;-78
2023/10/20 08:48:57;;;;;;;48.00;30.10;;;;;;;;;;5036428;28;20413;-78
2023/10/20 08:51:24;;;;;;;46.80;30.67;;;;;;;;;;5034767;28;20542;-78
2023/10/20 08:53:52;;;;;;;39.42;28.40;;;;;;;;;;5034795;28;20046;-78
2023/10/20 08:56:20;;;;;;;40.70;28.92;;;;;;;;;;5035702;28;20049;-78
2023/10/20 08:58:50;;;;;;;40.55;29.42;;;;;;;;;;5035136;28;20057;-78
2023/10/20 09:01:18;;;;;;;39.75;28.85;;;;;;;;;;5033939;28;20096;-77
2023/10/20 09:03:48;;;;;;;42.20;30.05;;;;;;;;;;5033972;28;20621;-77
2023/10/20 09:06:16;;;;;;;45.28;29.92;;;;;;;;;;5034261;28;20183;-77
2023/10/20 09:08:46;;;;;;;42.53;30.70;;;;;;;;;;5034394;28;20076;-77
2023/10/20 09:11:14;;;;;;;52.50;33.30;;;;;;;;;;5034446;28;20077;-78
2023/10/20 09:13:44;;;;;;;44.63;30.67;;;;;;;;;;5034308;28;20049;-78
2023/10/20 09:16:14;;;;;;;43.80;31.05;;;;;;;;;;5034992;28;20077;-77
2023/10/20 09:18:46;;;;;;;51.97;33.80;;;;;;;;;;5035003;28;20052;-77
2023/10/20 09:21:14;;;;;;;53.00;33.45;;;;;;;;;;5033425;28;20448;-77
2023/10/20 09:23:53;;;;;;;56.50;34.58;;;;;;;;;;5034640;28;20077;-77
2023/10/20 09:26:22;;;;;;;43.38;31.85;;;;;;;;;;5033404;28;20045;-77
2023/10/20 09:28:49;;;;;;;46.15;31.70;;;;;;;;;;5034417;28;20045;-77
2023/10/20 09:31:18;;;;;;;41.42;30.10;;;;;;;;;;5032882;28;20049;-77
2023/10/20 09:33:45;;;;;;;40.28;30.27;;;;;;;;;;5034288;28;20053;-77
2023/10/20 09:36:13;;;;;;;42.92;29.40;;;;;;;;;;5033974;28;20045;-78
2023/10/20 09:38:44;;;;;;;40.78;31.00;;;;;;;;;;5034396;28;20056;-77
2023/10/20 09:41:12;;;;;;;45.70;31.63;;;;;;;;;;5033178;28;20100;-78
2023/10/20 09:43:46;;;;;;;44.05;32.30;;;;;;;;;;5032769;28;20554;-77
2023/10/20 09:46:20;;;;;;;41.78;29.40;;;;;;;;;;5032885;28;20085;-77
2023/10/20 09:48:52;;;;;;;37.60;30.85;;;;;;;;;;5033858;28;20087;-77
2023/10/20 09:51:20;;;;;;;38.88;28.52;;;;;;;;;;5032493;28;20539;-77
2023/10/20 09:53:48;;;;;;;34.95;27.67;;;;;;;;;;5033461;28;20091;-78
2023/10/20 09:56:16;;;;;;;37.13;28.25;;;;;;;;;;5033402;28;20470;-77
2023/10/20 09:58:44;;;;;;;36.00;28.45;;;;;;;;;;5033281;28;20049;-78
2023/10/20 10:01:15;;;;;;;44.25;30.92;;;;;;;;;;5032935;28;20049;-78
2023/10/20 10:03:48;;;;;;;37.55;28.88;;;;;;;;;;5032985;28;20049;-77
2023/10/20 10:06:16;;;;;;;41.93;31.57;;;;;;;;;;5032994;28;20052;-77
2023/10/20 10:08:44;;;;;;;42.17;31.35;;;;;;;;;;5032949;28;20046;-77
2023/10/20 10:11:21;;;;;;;41.60;30.90;;;;;;;;;;5034865;28;20481;-78
2023/10/20 10:13:53;;;;;;;41.40;31.75;;;;;;;;;;5034571;28;20068;-77
2023/10/20 10:16:22;;;;;;;52.33;37.00;;;;;;;;;;5033281;28;20128;-78
2023/10/20 10:18:51;;;;;;;57.38;41.03;;;;;;;;;;5033297;28;20133;-77
2023/10/20 10:21:23;;;;;;;46.10;33.03;;;;;;;;;;5034722;28;20041;-78
2023/10/20 10:24:23;;;;;;;46.28;32.85;;;;;;;;;;5034176;28;20071;-77
2023/10/20 10:27:00;;;;;;;50.15;33.65;;;;;;;;;;4983648;28;20072;-78
2023/10/20 10:29:47;;;;;;;46.65;34.22;;;;;;;;;;5033341;28;20573;-78
2023/10/20 10:32:14;;;;;;;49.28;34.80;;;;;;;;;;5034030;28;20103;-78
2023/10/20 10:34:45;;;;;;;40.25;31.52;;;;;;;;;;5034922;28;20049;-78
2023/10/20 10:37:13;;;;;;;44.90;33.88;;;;;;;;;;5034366;28;20048;-78
2023/10/20 10:39:40;;;;;;;43.08;32.42;;;;;;;;;;5033337;28;20467;-78
2023/10/20 10:42:07;;;;;;;38.38;30.27;;;;;;;;;;5034151;28;20057;-78
2023/10/20 10:44:35;;;;;;;42.15;31.60;;;;;;;;;;5026517;28;20109;-77
2023/10/20 10:47:17;;;;;;;43.85;31.70;;;;;;;;;;5032916;28;20060;-77
2023/10/20 10:49:48;;;;;;;39.65;29.27;;;;;;;;;;5032335;28;20045;-77
2023/10/20 10:52:16;;;;;;;40.08;30.63;;;;;;;;;;5033704;28;20045;-78
2023/10/20 10:54:43;;;;;;;38.67;30.17;;;;;;;;;;5033000;28;20504;-78
2023/10/20 10:57:11;;;;;;;92.32;75.05;;;;;;;;;;5033963;28;20045;-78
2023/10/20 10:59:38;;;;;;;50.15;40.53;;;;;;;;;;5032544;28;20087;-78
2023/10/20 11:02:06;;;;;;;42.58;32.72;;;;;;;;;;5032446;28;20045;-78
2023/10/20 11:04:33;;;;;;;41.10;32.45;;;;;;;;;;5032512;28;20479;-78
2023/10/20 11:07:01;;;;;;;45.75;34.17;;;;;;;;;;5032689;28;20055;-78
2023/10/20 11:09:29;;;;;;;41.95;32.25;;;;;;;;;;5032229;28;20057;-78
2023/10/20 11:11:57;;;;;;;36.40;28.70;;;;;;;;;;5032726;28;20060;-78
2023/10/20 11:14:25;;;;;;;38.08;29.48;;;;;;;;;;5033693;28;20496;-78
2023/10/20 11:16:53;;;;;;;38.15;30.30;;;;;;;;;;5032700;28;20073;-78
2023/10/20 11:19:20;;;;;;;37.45;29.40;;;;;;;;;;5032605;28;20099;-78
2023/10/20 11:21:48;;;;;;;36.67;28.00;;;;;;;;;;5034023;28;20500;-78
2023/10/20 11:24:29;;;;;;;41.80;32.83;;;;;;;;;;5032522;28;20075;-78
2023/10/20 11:26:58;;;;;;;52.88;39.63;;;;;;;;;;5032912;28;20455;-79
2023/10/20 11:29:26;;;;;;;43.88;33.92;;;;;;;;;;5032537;28;20050;-78
2023/10/20 11:31:54;;;;;;;40.47;30.30;;;;;;;;;;5032473;28;20045;-78
2023/10/20 11:34:21;;;;;;;36.22;28.13;;;;;;;;;;5031435;28;20042;-78
2023/10/20 11:36:49;;;;;;;37.83;30.23;;;;;;;;;;5031222;28;20049;-78
2023/10/20 11:39:16;;;;;;;38.70;29.67;;;;;;;;;;5031161;28;20423;-78
2023/10/20 11:41:44;;;;;;;37.25;28.90;;;;;;;;;;5031440;28;20045;-78
2023/10/20 11:44:11;;;;;;;95.20;55.67;;;;;;;;;;5031291;28;20049;-78
2023/10/20 11:46:38;;;;;;;45.13;32.88;;;;;;;;;;5031178;28;20053;-78
2023/10/20 11:49:06;;;;;;;124.65;53.28;;;;;;;;;;5031256;28;20420;-78
2023/10/20 11:51:33;;;;;;;39.40;31.83;;;;;;;;;;5032420;28;20099;-78
2023/10/20 11:54:00;;;;;;;55.72;38.05;;;;;;;;;;5031427;28;20049;-78
2023/10/20 11:56:27;;;;;;;37.20;30.40;;;;;;;;;;5031260;28;20475;-77
2023/10/20 11:58:58;;;;;;;38.08;29.95;;;;;;;;;;5031493;28;20055;-78
2023/10/20 12:01:25;;;;;;;39.92;29.27;;;;;;;;;;5032115;28;20045;-78
2023/10/20 12:03:53;;;;;;;34.88;26.27;;;;;;;;;;5034969;28;20051;-78
2023/10/20 12:06:20;;;;;;;35.42;27.80;;;;;;;;;;5036087;28;20053;-79
2023/10/20 12:08:47;;;;;;;35.33;27.27;;;;;;;;;;5034890;28;20068;-78
2023/10/20 12:11:15;;;;;;;35.85;28.98;;;;;;;;;;5035557;28;20062;-78
2023/10/20 12:13:46;;;;;;;36.47;28.25;;;;;;;;;;5047200;28;20072;-77
2023/10/20 12:16:14;;;;;;;32.22;25.85;;;;;;;;;;5060221;28;20033;-77
2023/10/20 12:18:44;;;;;;;30.00;24.90;;;;;;;;;;5058668;28;20056;-78
2023/10/20 12:21:12;;;;;;;27.33;21.92;;;;;;;;;;5059097;28;20074;-77
2023/10/20 12:23:41;;;;;;;30.25;23.23;;;;;;;;;;5060895;28;20093;-77
2023/10/20 12:26:08;;;;;;;29.65;23.17;;;;;;;;;;5060277;28;20029;-77
2023/10/20 12:28:36;;;;;;;28.52;23.88;;;;;;;;;;5056122;28;20076;-78
2023/10/20 12:31:03;;;;;;;30.88;23.48;;;;;;;;;;5035271;28;20045;-78
2023/10/20 12:33:31;;;;;;;27.10;21.38;;;;;;;;;;5034365;28;20479;-78
2023/10/20 12:35:58;;;;;;;26.13;20.48;;;;;;;;;;5030969;28;20046;-78
2023/10/20 12:38:25;;;;;;;27.73;21.75;;;;;;;;;;5031815;28;20050;-78
2023/10/20 12:40:53;;;;;;;24.42;20.52;;;;;;;;;;5034363;28;20416;-78
2023/10/20 12:43:20;;;;;;;24.85;21.20;;;;;;;;;;5027234;28;20050;-78
2023/10/20 12:45:47;;;;;;;22.85;19.35;;;;;;;;;;5035203;28;20558;-78
2023/10/20 12:48:15;;;;;;;22.27;19.38;;;;;;;;;;5035397;28;20107;-78
2023/10/20 12:50:43;;;;;;;21.08;18.08;;;;;;;;;;5034456;28;20049;-78
2023/10/20 12:53:10;;;;;;;19.67;16.77;;;;;;;;;;5033939;28;20128;-79
2023/10/20 12:55:37;;;;;;;20.35;17.35;;;;;;;;;;5034294;28;20492;-78
2023/10/20 12:58:04;;;;;;;19.58;16.38;;;;;;;;;;5026303;28;20103;-79
2023/10/20 13:00:31;;;;;;;19.08;16.88;;;;;;;;;;5035454;28;20107;-79
2023/10/20 13:02:59;;;;;;;17.65;15.55;;;;;;;;;;5034596;28;20107;-78
2023/10/20 13:05:26;;;;;;;20.40;17.52;;;;;;;;;;5035142;28;20049;-79
2023/10/20 13:07:54;;;;;;;20.25;16.52;;;;;;;;;;5034353;28;20052;-79
2023/10/20 13:10:21;;;;;;;17.88;15.50;;;;;;;;;;5033730;28;20432;-79
2023/10/20 13:12:48;;;;;;;17.60;15.65;;;;;;;;;;5035058;28;20099;-78
2023/10/20 13:15:15;;;;;;;16.13;14.43;;;;;;;;;;5033828;28;20055;-78
2023/10/20 13:17:43;;;;;;;17.65;14.40;;;;;;;;;;5026189;28;20046;-79
2023/10/20 13:20:12;;;;;;;16.52;14.18;;;;;;;;;;5034243;28;20099;-78
2023/10/20 13:22:40;;;;;;;22.55;16.65;;;;;;;;;;5034747;28;20053;-78
2023/10/20 13:25:07;;;;;;;16.75;15.10;;;;;;;;;;5033194;28;20405;-78
2023/10/20 13:27:35;;;;;;;19.35;16.85;;;;;;;;;;5033073;28;20059;-78
2023/10/20 13:30:07;;;;;;;20.23;17.42;;;;;;;;;;5033995;28;20053;-79
2023/10/20 13:32:34;;;;;;;19.27;17.17;;;;;;;;;;5032807;28;20049;-79
2023/10/20 13:35:02;;;;;;;29.42;20.85;;;;;;;;;;5033996;28;20492;-79
2023/10/20 13:37:30;;;;;;;27.63;20.10;;;;;;;;;;5034320;28;20053;-79
2023/10/20 13:39:57;;;;;;;18.85;15.90;;;;;;;;;;5025955;28;20095;-79
2023/10/20 13:42:25;;;;;;;15.52;13.55;;;;;;;;;;5034264;28;20127;-79
2023/10/20 13:44:53;;;;;;;18.52;14.40;;;;;;;;;;5033923;28;20496;-79
2023/10/20 13:47:20;;;;;;;16.55;14.30;;;;;;;;;;5033923;28;20523;-79
2023/10/20 13:49:47;;;;;;;12.63;11.32;;;;;;;;;;5034647;28;20049;-78
2023/10/20 13:52:14;;;;;;;12.70;11.40;;;;;;;;;;5033779;28;20045;-79
2023/10/20 13:54:43;;;;;;;14.27;12.95;;;;;;;;;;5033481;28;20128;-78
2023/10/20 13:57:10;;;;;;;12.50;10.23;;;;;;;;;;5035549;28;20439;-78
2023/10/20 13:59:37;;;;;;;18.10;15.15;;;;;;;;;;5033777;28;20049;-79
2023/10/20 14:02:04;;;;;;;16.98;14.77;;;;;;;;;;5028943;28;20495;-78
2023/10/20 14:04:32;;;;;;;18.23;15.77;;;;;;;;;;5037543;28;20053;-79
2023/10/20 14:06:59;;;;;;;18.30;16.17;;;;;;;;;;5033371;28;20573;-79
2023/10/20 14:09:26;;;;;;;17.02;15.23;;;;;;;;;;5032911;28;20053;-79
2023/10/20 14:11:54;;;;;;;17.33;15.32;;;;;;;;;;5032725;28;20057;-79
2023/10/20 14:14:21;;;;;;;15.02;13.40;;;;;;;;;;5032880;28;20045;-79
2023/10/20 14:16:49;;;;;;;12.80;11.40;;;;;;;;;;5032863;28;20136;-78
2023/10/20 14:19:16;;;;;;;12.20;11.00;;;;;;;;;;5032694;28;20065;-79
2023/10/20 14:21:43;;;;;;;12.85;11.05;;;;;;;;;;5033124;28;20053;-79
2023/10/20 14:24:10;;;;;;;17.00;12.57;;;;;;;;;;5033190;28;20053;-79
2023/10/20 14:26:37;;;;;;;16.65;14.73;;;;;;;;;;5034065;28;20053;-79
2023/10/20 14:29:05;;;;;;;15.60;13.90;;;;;;;;;;5034644;28;20049;-80
2023/10/20 14:31:32;;;;;;;16.98;14.85;;;;;;;;;;5033998;28;20546;-79
2023/10/20 14:33:59;;;;;;;14.40;12.35;;;;;;;;;;5034076;28;20041;-79
2023/10/20 14:36:26;;;;;;;11.55;10.43;;;;;;;;;;5033821;28;20049;-79
2023/10/20 14:38:54;;;;;;;12.95;11.35;;;;;;;;;;5034024;28;20361;-79
2023/10/20 14:41:22;;;;;;;11.88;10.77;;;;;;;;;;5032848;28;20164;-79
2023/10/20 14:43:50;;;;;;;12.25;11.07;;;;;;;;;;5032532;28;20160;-78
2023/10/20 14:46:17;;;;;;;13.52;12.13;;;;;;;;;;5032256;28;20053;-79
2023/10/20 14:48:45;;;;;;;15.23;13.63;;;;;;;;;;5033308;28;20061;-80